Time;durP1;ratioP1;P1;durP2;ratioP2;P2;SDS_P1;SDS_P2;PMS_P1;PMS_P2;Temp;Humidity;BMP_temperature;BMP_pressure;BME280_temperature;BME280_humidity;BME280_pressure;Samples;Min_cycle;Max_cycle;Signal;HPM_P1;HPM_P2
2023/08/19 00:01:03;;;;;;;1.00;0.60;;;24.40;1.00;;;;;;5157912;27;20839;-47
2023/08/19 00:03:30;;;;;;;1.13;0.60;;;24.30;1.00;;;;;;5158318;27;20420;-53
2023/08/19 00:06:00;;;;;;;1.30;0.60;;;24.30;1.00;;;;;;5158742;27;20416;-52
2023/08/19 00:08:27;;;;;;;0.93;0.60;;;24.30;1.00;;;;;;5158945;27;20420;-53
2023/08/19 00:10:55;;;;;;;1.10;0.60;;;24.30;1.00;;;;;;5158814;27;20412;-48
2023/08/19 00:13:22;;;;;;;1.35;0.80;;;24.30;1.00;;;;;;5159005;27;20481;-50
2023/08/19 00:15:49;;;;;;;1.00;0.60;;;24.30;1.00;;;;;;5159221;27;20416;-48
2023/08/19 00:18:16;;;;;;;1.30;0.60;;;24.20;1.00;;;;;;5158706;27;20735;-50
2023/08/19 00:20:44;;;;;;;1.10;0.60;;;24.20;1.00;;;;;;5159593;27;20846;-53
2023/08/19 00:23:15;;;;;;;0.93;0.60;;;24.20;1.00;;;;;;5158979;27;20428;-54
2023/08/19 00:25:43;;;;;;;1.80;0.70;;;24.20;1.00;;;;;;5159116;27;20409;-51
2023/08/19 00:28:10;;;;;;;1.25;0.70;;;24.20;1.00;;;;;;5158958;27;20421;-53
2023/08/19 00:30:37;;;;;;;1.10;0.60;;;24.20;1.00;;;;;;5158034;27;20421;-50
2023/08/19 00:33:04;;;;;;;1.00;0.70;;;24.20;1.00;;;;;;5158038;27;20433;-49
2023/08/19 00:35:32;;;;;;;0.93;0.60;;;24.10;1.00;;;;;;5158079;27;20413;-54
2023/08/19 00:37:59;;;;;;;1.63;0.70;;;24.10;41.70;;;;;;5157263;27;20413;-51
2023/08/19 00:40:28;;;;;;;1.30;0.60;;;24.10;99.90;;;;;;5157657;27;20409;-50
2023/08/19 00:42:55;;;;;;;1.10;0.50;;;24.10;99.90;;;;;;5158269;27;20416;-49
2023/08/19 00:45:22;;;;;;;1.00;0.70;;;24.20;99.90;;;;;;5158614;27;20489;-53
2023/08/19 00:47:49;;;;;;;1.73;0.60;;;24.20;99.90;;;;;;5158977;27;20421;-52
2023/08/19 00:50:16;;;;;;;0.88;0.68;;;24.20;99.90;;;;;;5158630;27;20413;-47
2023/08/19 00:52:45;;;;;;;1.35;0.70;;;24.20;99.90;;;;;;5159087;27;20828;-51
2023/08/19 00:55:13;;;;;;;1.88;0.60;;;24.30;99.90;;;;;;5158821;27;20416;-53
2023/08/19 00:57:42;;;;;;;1.00;0.70;;;24.30;99.90;;;;;;5157229;27;20420;-48
2023/08/19 01:00:10;;;;;;;1.10;1.00;;;24.20;99.90;;;;;;5156823;27;20920;-49
2023/08/19 01:02:37;;;;;;;1.20;0.70;;;24.20;99.90;;;;;;5158374;27;20413;-52
2023/08/19 01:05:04;;;;;;;0.90;0.63;;;24.20;1.00;;;;;;5157245;27;20427;-52
2023/08/19 01:07:39;;;;;;;1.10;0.70;;;24.30;1.00;;;;;;5158056;27;20409;-51
2023/08/19 01:10:14;;;;;;;1.08;0.70;;;24.30;1.00;;;;;;5156528;27;20421;-50
2023/08/19 01:12:48;;;;;;;2.60;0.70;;;24.20;1.00;;;;;;5156983;27;20417;-49
2023/08/19 01:15:19;;;;;;;1.40;0.80;;;24.10;1.00;;;;;;5156395;27;20426;-53
2023/08/19 01:17:49;;;;;;;2.30;0.70;;;24.00;25.10;;;;;;5157696;27;20427;-52
2023/08/19 01:20:18;;;;;;;1.75;0.80;;;23.90;99.90;;;;;;5157581;27;20445;-52
2023/08/19 01:22:56;;;;;;;0.98;0.70;;;23.90;99.90;;;;;;5158173;27;20412;-49
2023/08/19 01:25:26;;;;;;;2.30;0.80;;;23.80;1.00;;;;;;5158205;27;20721;-52
2023/08/19 01:27:53;;;;;;;1.20;0.68;;;23.80;99.90;;;;;;5158450;27;20417;-48
2023/08/19 01:30:20;;;;;;;1.00;0.70;;;23.80;99.90;;;;;;5157522;27;20421;-49
2023/08/19 01:32:48;;;;;;;1.00;0.60;;;23.80;52.00;;;;;;5157365;27;20425;-48
2023/08/19 01:35:16;;;;;;;0.90;0.70;;;23.80;98.30;;;;;;5156393;27;20528;-50
2023/08/19 01:37:51;;;;;;;1.05;0.70;;;23.70;96.70;;;;;;5157404;27;20473;-53
2023/08/19 01:40:20;;;;;;;1.70;0.63;;;23.80;99.90;;;;;;5156699;27;20477;-52
2023/08/19 01:42:49;;;;;;;1.63;0.70;;;23.80;99.90;;;;;;5157770;27;20839;-53
2023/08/19 01:45:17;;;;;;;1.10;0.70;;;23.70;87.20;;;;;;5156671;27;20765;-50
2023/08/19 01:47:44;;;;;;;1.20;0.70;;;23.80;5.50;;;;;;5154975;27;20480;-53
2023/08/19 01:50:11;;;;;;;1.45;0.70;;;23.60;99.90;;;;;;5155131;27;20474;-52
2023/08/19 01:52:38;;;;;;;0.90;0.60;;;23.60;72.00;;;;;;5157348;27;20701;-50
2023/08/19 01:55:06;;;;;;;1.05;0.70;;;23.50;1.00;;;;;;5157683;27;20464;-54
2023/08/19 01:57:33;;;;;;;1.30;0.70;;;23.50;1.00;;;;;;5156915;27;20843;-50
2023/08/19 02:00:01;;;;;;;1.10;0.60;;;23.40;99.90;;;;;;5157942;27;20404;-52
2023/08/19 02:02:28;;;;;;;1.70;0.73;;;23.40;99.90;;;;;;5157106;27;20428;-47
2023/08/19 02:04:55;;;;;;;1.60;0.70;;;23.40;99.90;;;;;;5156960;27;20689;-52
2023/08/19 02:07:22;;;;;;;1.00;0.70;;;23.40;99.90;;;;;;5157533;27;20420;-52
2023/08/19 02:09:49;;;;;;;1.40;0.60;;;23.40;1.00;;;;;;5157378;27;20777;-52
2023/08/19 02:12:16;;;;;;;1.42;0.70;;;23.40;1.00;;;;;;5157230;27;20781;-50
2023/08/19 02:14:43;;;;;;;2.20;0.90;;;23.30;1.00;;;;;;5157095;27;20486;-55
2023/08/19 02:17:12;;;;;;;1.38;0.70;;;23.40;1.00;;;;;;5156864;27;20413;-51
2023/08/19 02:19:39;;;;;;;1.20;0.70;;;23.40;1.00;;;;;;5157056;27;20409;-51
2023/08/19 02:22:06;;;;;;;0.95;0.70;;;23.40;1.00;;;;;;5156599;27;20417;-53
2023/08/19 02:24:33;;;;;;;1.02;0.70;;;23.40;1.00;;;;;;5156581;27;20477;-50
2023/08/19 02:27:00;;;;;;;1.20;0.60;;;23.40;1.00;;;;;;5156494;27;20481;-48
2023/08/19 02:29:26;;;;;;;1.00;0.60;;;23.40;1.00;;;;;;5155546;27;20501;-48
2023/08/19 02:31:54;;;;;;;1.48;0.60;;;23.40;1.00;;;;;;5155073;27;20693;-50
2023/08/19 02:34:22;;;;;;;1.85;0.65;;;23.40;1.00;;;;;;5156923;27;20436;-46
2023/08/19 02:36:49;;;;;;;2.88;0.80;;;23.30;99.90;;;;;;5157195;27;20424;-51
2023/08/19 02:39:16;;;;;;;1.10;0.77;;;23.30;1.00;;;;;;5155592;27;20591;-53
2023/08/19 02:41:43;;;;;;;1.45;0.70;;;23.30;1.00;;;;;;5155220;27;20420;-52
2023/08/19 02:44:10;;;;;;;1.10;0.70;;;23.40;99.90;;;;;;5156023;27;20412;-51
2023/08/19 02:46:37;;;;;;;1.80;0.73;;;23.40;99.90;;;;;;5155778;27;20417;-49
2023/08/19 02:49:04;;;;;;;1.75;0.70;;;23.40;1.00;;;;;;5156864;27;20416;-53
2023/08/19 02:51:32;;;;;;;1.10;0.80;;;23.30;1.00;;;;;;5155735;27;20808;-48
2023/08/19 02:53:59;;;;;;;1.75;0.80;;;23.30;1.00;;;;;;5154477;27;20432;-52
2023/08/19 02:56:26;;;;;;;1.50;0.80;;;23.30;1.00;;;;;;5154207;27;20473;-49
2023/08/19 02:58:53;;;;;;;1.23;0.70;;;23.30;1.00;;;;;;5155488;27;20446;-50
2023/08/19 03:01:23;;;;;;;1.10;0.70;;;23.20;70.90;;;;;;5156455;27;20429;-49
2023/08/19 03:03:50;;;;;;;1.27;0.80;;;23.20;99.90;;;;;;5155280;27;20427;-50
2023/08/19 03:06:17;;;;;;;1.00;0.60;;;23.10;1.00;;;;;;5155936;27;20417;-48
2023/08/19 03:08:45;;;;;;;0.80;0.70;;;23.10;1.00;;;;;;5156166;27;20417;-49
2023/08/19 03:11:12;;;;;;;1.00;0.70;;;23.10;1.00;;;;;;5155871;27;20465;-52
2023/08/19 03:13:39;;;;;;;1.10;0.60;;;23.10;1.00;;;;;;5156096;27;20424;-48
2023/08/19 03:16:06;;;;;;;1.33;0.70;;;23.00;99.90;;;;;;5156384;27;20417;-50
2023/08/19 03:18:33;;;;;;;1.30;0.70;;;23.00;99.90;;;;;;5156081;27;20421;-50
2023/08/19 03:21:01;;;;;;;0.95;0.70;;;23.00;99.90;;;;;;5155439;27;20421;-52
2023/08/19 03:23:28;;;;;;;1.40;0.70;;;22.90;99.90;;;;;;5156333;27;20416;-48
2023/08/19 03:25:57;;;;;;;0.98;0.70;;;22.90;99.90;;;;;;5155181;27;20412;-54
2023/08/19 03:28:25;;;;;;;1.50;0.65;;;22.90;99.90;;;;;;5154998;27;20444;-49
2023/08/19 03:30:52;;;;;;;0.95;0.68;;;22.90;1.00;;;;;;5154619;27;20416;-49
2023/08/19 03:33:20;;;;;;;2.40;0.70;;;22.90;1.00;;;;;;5155218;27;20473;-49
2023/08/19 03:35:47;;;;;;;1.50;0.60;;;22.90;1.00;;;;;;5153024;27;20462;-50
2023/08/19 03:38:15;;;;;;;1.45;0.75;;;22.90;1.00;;;;;;5153311;27;20409;-52
2023/08/19 03:40:42;;;;;;;1.20;0.70;;;22.90;1.00;;;;;;5154002;27;20705;-50
2023/08/19 03:43:11;;;;;;;1.98;0.70;;;22.80;1.00;;;;;;5153857;27;20428;-55
2023/08/19 03:45:38;;;;;;;1.20;0.70;;;22.80;1.00;;;;;;5154055;27;20918;-53
2023/08/19 03:48:05;;;;;;;1.15;0.80;;;22.80;99.90;;;;;;5154151;27;20839;-53
2023/08/19 03:50:32;;;;;;;1.63;0.70;;;22.80;99.90;;;;;;5155489;27;20766;-52
2023/08/19 03:52:59;;;;;;;1.40;0.70;;;22.80;99.90;;;;;;5156119;27;20888;-53
2023/08/19 03:55:27;;;;;;;2.20;0.73;;;22.70;99.90;;;;;;5155274;27;20482;-51
2023/08/19 03:57:55;;;;;;;2.30;0.75;;;22.70;22.50;;;;;;5155496;27;20425;-51
2023/08/19 04:00:23;;;;;;;1.40;0.70;;;22.70;1.00;;;;;;5157882;27;20722;-51
2023/08/19 04:02:50;;;;;;;2.30;0.80;;;22.60;1.00;;;;;;5158823;27;20420;-52
2023/08/19 04:05:17;;;;;;;1.75;0.70;;;22.60;99.90;;;;;;5160004;27;20429;-51
2023/08/19 04:07:44;;;;;;;1.77;0.70;;;22.60;1.00;;;;;;5158870;27;20404;-50
2023/08/19 04:10:11;;;;;;;1.60;0.60;;;22.60;1.00;;;;;;5159046;27;20502;-49
2023/08/19 04:12:38;;;;;;;1.60;0.70;;;22.50;1.00;;;;;;5159273;27;20707;-55
2023/08/19 04:15:08;;;;;;;1.70;0.80;;;22.50;1.00;;;;;;5158421;27;20745;-48
2023/08/19 04:17:37;;;;;;;1.15;0.70;;;22.50;1.00;;;;;;5158838;27;20512;-52
2023/08/19 04:20:07;;;;;;;1.40;0.70;;;22.50;99.90;;;;;;5159242;27;20417;-53
2023/08/19 04:22:34;;;;;;;1.20;0.70;;;22.50;99.90;;;;;;5159115;27;20444;-53
2023/08/19 04:25:02;;;;;;;1.95;0.70;;;22.50;99.90;;;;;;5159427;27;20966;-50
2023/08/19 04:27:30;;;;;;;1.70;0.80;;;22.50;99.90;;;;;;5159082;27;20504;-55
2023/08/19 04:29:57;;;;;;;1.50;0.70;;;22.50;99.90;;;;;;5158588;27;20908;-55
2023/08/19 04:32:24;;;;;;;1.10;0.60;;;22.50;1.00;;;;;;5159123;27;20699;-55
2023/08/19 04:34:52;;;;;;;1.00;0.70;;;22.50;28.70;;;;;;5159303;27;20424;-53
2023/08/19 04:37:19;;;;;;;1.90;0.60;;;22.50;99.90;;;;;;5158692;27;20746;-53
2023/08/19 04:39:46;;;;;;;1.13;0.60;;;22.50;99.90;;;;;;5158389;27;20412;-50
2023/08/19 04:42:13;;;;;;;3.17;0.70;;;22.50;99.90;;;;;;5157419;27;20477;-52
2023/08/19 04:44:40;;;;;;;1.10;0.70;;;22.50;99.90;;;;;;5157039;27;20417;-53
2023/08/19 04:47:07;;;;;;;2.00;0.70;;;22.50;99.90;;;;;;5157707;27;20413;-57
2023/08/19 04:49:36;;;;;;;0.98;0.70;;;22.50;99.90;;;;;;5157990;27;20781;-57
2023/08/19 04:52:04;;;;;;;0.90;0.60;;;22.50;99.90;;;;;;5158858;27;20844;-55
2023/08/19 04:54:31;;;;;;;1.00;0.60;;;22.50;99.90;;;;;;5158314;27;20435;-56
2023/08/19 04:56:58;;;;;;;1.40;0.80;;;22.60;1.00;;;;;;5158614;27;20473;-56
2023/08/19 04:59:25;;;;;;;1.20;0.70;;;22.60;1.00;;;;;;5158485;27;20416;-57
2023/08/19 05:01:52;;;;;;;2.28;0.80;;;22.60;1.00;;;;;;5158363;27;20419;-54
2023/08/19 05:04:19;;;;;;;1.80;0.70;;;22.50;1.00;;;;;;5157620;27;20927;-56
2023/08/19 05:06:46;;;;;;;1.00;0.70;;;22.50;99.90;;;;;;5158092;27;20416;-55
2023/08/19 05:09:15;;;;;;;1.15;0.80;;;22.50;99.90;;;;;;5158366;27;20421;-56
2023/08/19 05:11:42;;;;;;;1.08;0.80;;;22.50;1.00;;;;;;5158836;27;20413;-57
2023/08/19 05:14:09;;;;;;;2.83;0.80;;;22.50;1.00;;;;;;5158186;27;20412;-56
2023/08/19 05:16:36;;;;;;;2.10;0.80;;;22.50;1.00;;;;;;5157425;27;20668;-56
2023/08/19 05:19:06;;;;;;;1.55;0.80;;;22.50;1.00;;;;;;5157657;27;21032;-55
2023/08/19 05:21:33;;;;;;;1.17;0.70;;;22.50;1.00;;;;;;5157999;27;20772;-55
2023/08/19 05:24:00;;;;;;;2.70;0.80;;;22.60;1.00;;;;;;5157679;27;20477;-56
2023/08/19 05:26:28;;;;;;;2.80;0.80;;;22.60;99.90;;;;;;5158281;27;20424;-53
2023/08/19 05:28:55;;;;;;;1.90;0.80;;;22.70;99.90;;;;;;5157589;27;20413;-56
2023/08/19 05:31:22;;;;;;;2.00;0.80;;;22.80;24.50;;;;;;5157554;27;20421;-57
2023/08/19 05:33:49;;;;;;;1.00;0.70;;;22.80;99.90;;;;;;5157782;27;20531;-56
2023/08/19 05:36:16;;;;;;;2.38;0.80;;;22.90;1.00;;;;;;5157689;27;20504;-56
2023/08/19 05:38:43;;;;;;;2.10;0.70;;;22.90;99.90;;;;;;5157039;27;20481;-57
2023/08/19 05:41:10;;;;;;;2.27;0.80;;;22.80;99.90;;;;;;5156522;27;20415;-57
2023/08/19 05:43:39;;;;;;;1.70;0.80;;;22.80;1.00;;;;;;5157372;27;20419;-52
2023/08/19 05:46:07;;;;;;;2.97;0.70;;;22.90;1.00;;;;;;5156918;27;20425;-54
2023/08/19 05:48:34;;;;;;;2.17;0.80;;;22.90;1.00;;;;;;5156260;27;20421;-55
2023/08/19 05:51:02;;;;;;;1.55;0.80;;;22.90;1.00;;;;;;5157490;27;20424;-56
2023/08/19 05:53:29;;;;;;;1.20;0.80;;;23.00;1.00;;;;;;5129232;27;20431;-56
2023/08/19 05:55:55;;;;;;;1.25;0.70;;;22.90;1.00;;;;;;5118272;27;20428;-56
2023/08/19 05:58:22;;;;;;;1.40;0.70;;;22.90;1.00;;;;;;5140006;27;20429;-56
2023/08/19 06:00:57;;;;;;;2.10;0.77;;;23.00;1.00;;;;;;5139933;27;20417;-55
2023/08/19 06:03:24;;;;;;;1.60;0.80;;;23.00;99.90;;;;;;5139412;27;20420;-55
2023/08/19 06:05:51;;;;;;;0.90;0.70;;;23.00;99.90;;;;;;5139045;27;20475;-55
2023/08/19 06:08:18;;;;;;;1.20;0.70;;;23.10;99.90;;;;;;5120238;27;20471;-57
2023/08/19 06:10:45;;;;;;;1.45;0.70;;;23.20;99.90;;;;;;5143430;27;20506;-54
2023/08/19 06:13:12;;;;;;;1.50;0.80;;;23.30;1.00;;;;;;5134735;27;20429;-56
2023/08/19 06:15:40;;;;;;;2.40;0.70;;;23.30;1.00;;;;;;5147930;27;20481;-56
2023/08/19 06:18:09;;;;;;;1.27;0.80;;;23.30;1.00;;;;;;5135338;27;20410;-56
2023/08/19 06:20:36;;;;;;;1.75;0.90;;;23.40;1.00;;;;;;5151627;27;20515;-56
2023/08/19 06:23:03;;;;;;;1.60;0.80;;;23.50;1.00;;;;;;5145374;27;20813;-53
2023/08/19 06:25:30;;;;;;;1.30;0.90;;;23.60;1.00;;;;;;5146382;27;20408;-57
2023/08/19 06:28:00;;;;;;;2.35;0.80;;;23.60;99.90;;;;;;5136228;27;20445;-54
2023/08/19 06:30:27;;;;;;;2.00;0.80;;;23.70;99.90;;;;;;5132850;27;20818;-57
2023/08/19 06:32:55;;;;;;;1.17;0.80;;;23.80;99.90;;;;;;5141483;27;20921;-56
2023/08/19 06:35:24;;;;;;;1.13;0.70;;;23.90;99.90;;;;;;5142344;27;20833;-56
2023/08/19 06:37:55;;;;;;;2.10;0.88;;;24.00;99.90;;;;;;5149955;27;20524;-57
2023/08/19 06:40:25;;;;;;;1.40;0.80;;;24.10;81.60;;;;;;5122399;27;20428;-54
2023/08/19 06:42:53;;;;;;;1.30;0.70;;;24.20;1.00;;;;;;5136322;27;20418;-53
2023/08/19 06:45:23;;;;;;;1.02;0.70;;;24.30;1.00;;;;;;5136127;27;20515;-56
2023/08/19 06:47:53;;;;;;;2.45;0.70;;;24.40;1.00;;;;;;5135340;27;20422;-56
2023/08/19 06:50:21;;;;;;;1.40;0.80;;;24.50;1.00;;;;;;5133698;27;20432;-57
2023/08/19 06:52:50;;;;;;;1.00;0.80;;;24.60;1.00;;;;;;5155321;27;20525;-58
2023/08/19 06:55:18;;;;;;;0.80;0.70;;;24.70;1.00;;;;;;5142676;27;20483;-56
2023/08/19 06:57:51;;;;;;;1.10;0.70;;;24.70;1.00;;;;;;5148333;27;20497;-58
2023/08/19 07:00:19;;;;;;;1.10;0.80;;;24.80;1.00;;;;;;5119447;27;20479;-57
2023/08/19 07:02:47;;;;;;;1.50;0.80;;;24.80;1.00;;;;;;5145472;27;20425;-57
2023/08/19 07:05:15;;;;;;;1.60;0.80;;;24.90;1.00;;;;;;5143294;27;20467;-56
2023/08/19 07:07:47;;;;;;;1.50;0.80;;;25.00;1.00;;;;;;5147245;27;20415;-59
2023/08/19 07:10:17;;;;;;;1.50;0.73;;;25.10;1.00;;;;;;5133713;27;20925;-58
2023/08/19 07:12:45;;;;;;;2.40;0.80;;;25.20;1.00;;;;;;5145646;27;20829;-58
2023/08/19 07:15:14;;;;;;;1.60;0.70;;;25.30;99.90;;;;;;5142759;27;20429;-57
2023/08/19 07:17:44;;;;;;;1.90;0.90;;;25.40;99.90;;;;;;5138935;27;20421;-57
2023/08/19 07:20:15;;;;;;;1.58;0.80;;;25.50;99.90;;;;;;5148135;27;20490;-58
2023/08/19 07:22:43;;;;;;;1.95;0.70;;;25.70;99.90;;;;;;5137232;27;20412;-59
2023/08/19 07:25:11;;;;;;;1.50;0.80;;;25.80;99.90;;;;;;5137006;27;20467;-58
2023/08/19 07:27:41;;;;;;;1.35;0.80;;;25.90;99.90;;;;;;5153641;27;20424;-57
2023/08/19 07:30:09;;;;;;;2.30;0.80;;;26.00;99.90;;;;;;5132169;27;20494;-58
2023/08/19 07:32:37;;;;;;;2.10;0.80;;;26.10;99.90;;;;;;5137878;27;20501;-58
2023/08/19 07:35:04;;;;;;;1.50;0.93;;;26.20;99.90;;;;;;5147424;27;20837;-59
2023/08/19 07:37:31;;;;;;;0.90;0.70;;;26.20;99.90;;;;;;5149580;27;20453;-57
2023/08/19 07:39:59;;;;;;;2.10;0.70;;;26.30;99.90;;;;;;5154011;27;20778;-58
2023/08/19 07:42:27;;;;;;;1.33;0.80;;;26.40;99.90;;;;;;5140396;27;20420;-58
2023/08/19 07:44:56;;;;;;;2.70;1.00;;;26.50;99.90;;;;;;5148786;27;20578;-58
2023/08/19 07:47:23;;;;;;;1.60;0.80;;;26.50;99.90;;;;;;5134425;27;20422;-58
2023/08/19 07:49:50;;;;;;;2.00;0.80;;;26.60;99.90;;;;;;5149130;27;20412;-57
2023/08/19 07:52:17;;;;;;;1.80;0.90;;;26.60;99.90;;;;;;5118404;27;20491;-56
2023/08/19 07:54:45;;;;;;;1.60;0.70;;;26.70;99.90;;;;;;5145453;27;20422;-58
2023/08/19 07:57:12;;;;;;;1.50;0.80;;;26.80;99.90;;;;;;5142274;27;20505;-59
2023/08/19 07:59:39;;;;;;;1.60;0.80;;;26.80;99.90;;;;;;5140719;27;20422;-58
2023/08/19 08:02:07;;;;;;;4.30;3.00;;;26.90;99.90;;;;;;5150276;27;20461;-58
2023/08/19 08:04:34;;;;;;;2.10;0.98;;;27.00;99.90;;;;;;5139849;27;20440;-58
2023/08/19 08:07:01;;;;;;;2.42;0.80;;;27.10;98.00;;;;;;5145488;27;20414;-58
2023/08/19 08:09:28;;;;;;;1.10;0.80;;;27.20;84.50;;;;;;5148478;27;20416;-58
2023/08/19 08:11:55;;;;;;;2.05;0.80;;;27.20;61.70;;;;;;5139442;27;20844;-59
2023/08/19 08:14:22;;;;;;;1.60;0.80;;;27.40;47.30;;;;;;5149507;27;20515;-58
2023/08/19 08:16:50;;;;;;;1.90;0.80;;;27.50;16.00;;;;;;5131109;27;20638;-58
2023/08/19 08:19:22;;;;;;;2.30;0.80;;;27.60;13.40;;;;;;5147002;27;20443;-60
2023/08/19 08:21:49;;;;;;;1.15;0.80;;;27.60;1.00;;;;;;5140575;27;20581;-59
2023/08/19 08:24:16;;;;;;;1.30;0.90;;;27.70;1.00;;;;;;5150082;27;20474;-58
2023/08/19 08:26:42;;;;;;;1.70;0.80;;;27.80;1.00;;;;;;5142307;27;20840;-58
2023/08/19 08:29:09;;;;;;;1.20;0.70;;;27.90;1.00;;;;;;5144458;27;20854;-58
2023/08/19 08:31:36;;;;;;;2.20;0.80;;;28.00;1.00;;;;;;5147426;27;20493;-58
2023/08/19 08:34:03;;;;;;;2.00;0.80;;;28.10;1.00;;;;;;5136342;27;20422;-59
2023/08/19 08:36:32;;;;;;;1.20;0.73;;;28.10;1.00;;;;;;5150081;27;20933;-59
2023/08/19 08:38:59;;;;;;;1.70;0.70;;;28.20;1.00;;;;;;5131150;27;20418;-58
2023/08/19 08:41:26;;;;;;;0.90;0.70;;;28.30;1.00;;;;;;5145626;27;20421;-59
2023/08/19 08:43:56;;;;;;;1.42;0.80;;;28.30;1.00;;;;;;5136780;27;20414;-59
2023/08/19 08:46:26;;;;;;;1.10;0.70;;;28.40;1.00;;;;;;5150978;27;20494;-58
2023/08/19 08:48:54;;;;;;;2.22;1.05;;;28.50;1.00;;;;;;5144468;27;20454;-58
2023/08/19 08:51:22;;;;;;;1.20;0.70;;;28.50;1.00;;;;;;5144602;27;20759;-57
2023/08/19 08:53:52;;;;;;;1.88;0.70;;;28.60;1.00;;;;;;5149920;27;20912;-58
2023/08/19 08:56:21;;;;;;;1.17;0.80;;;28.70;1.00;;;;;;5120842;27;20503;-59
2023/08/19 08:58:47;;;;;;;1.70;0.80;;;28.80;1.00;;;;;;5147476;27;20421;-59
2023/08/19 09:01:16;;;;;;;1.97;0.90;;;28.90;1.00;;;;;;5145350;27;20416;-57
2023/08/19 09:03:45;;;;;;;1.40;0.80;;;29.00;1.00;;;;;;5139912;27;20422;-55
2023/08/19 09:06:16;;;;;;;1.80;0.80;;;29.10;1.00;;;;;;5150800;27;20438;-55
2023/08/19 09:08:47;;;;;;;2.40;0.80;;;29.20;1.00;;;;;;5141079;27;20413;-56
2023/08/19 09:11:27;;;;;;;1.70;0.80;;;29.40;1.00;;;;;;5143205;27;20443;-52
2023/08/19 09:13:58;;;;;;;1.03;0.60;;;29.50;1.00;;;;;;5132560;27;20421;-55
2023/08/19 09:16:25;;;;;;;0.93;0.70;;;29.50;1.00;;;;;;5142205;27;20427;-51
2023/08/19 09:18:52;;;;;;;1.58;0.90;;;29.50;1.00;;;;;;5133633;27;20491;-53
2023/08/19 09:21:20;;;;;;;1.70;0.70;;;29.70;1.00;;;;;;5140936;27;20430;-54
2023/08/19 09:23:47;;;;;;;1.30;0.70;;;29.90;1.00;;;;;;5150430;27;20715;-53
2023/08/19 09:26:13;;;;;;;1.60;0.85;;;30.10;1.00;;;;;;5152089;27;20407;-54
2023/08/19 09:28:42;;;;;;;1.13;0.70;;;30.20;1.00;;;;;;5139554;27;20408;-54
2023/08/19 09:31:20;;;;;;;1.70;0.70;;;30.20;1.00;;;;;;5143487;27;20746;-54
2023/08/19 09:33:49;;;;;;;1.73;0.70;;;30.20;1.00;;;;;;5148836;27;20424;-53
2023/08/19 09:36:16;;;;;;;2.38;0.80;;;30.20;1.00;;;;;;5126687;27;20486;-54
2023/08/19 09:38:43;;;;;;;1.83;0.82;;;30.20;1.00;;;;;;5143349;27;20420;-55
2023/08/19 09:41:11;;;;;;;2.15;1.50;;;30.40;1.00;;;;;;5128288;27;20419;-55
2023/08/19 09:43:40;;;;;;;1.42;0.90;;;30.60;1.00;;;;;;5131006;27;20518;-54
2023/08/19 09:46:08;;;;;;;1.53;0.80;;;30.80;1.00;;;;;;5139169;27;20957;-55
2023/08/19 09:48:36;;;;;;;1.30;0.80;;;31.10;1.00;;;;;;5131075;27;20464;-54
2023/08/19 09:51:03;;;;;;;1.40;0.70;;;31.30;1.00;;;;;;5130858;27;20525;-52
2023/08/19 09:53:32;;;;;;;1.13;0.80;;;31.30;1.00;;;;;;5127087;27;20725;-53
2023/08/19 09:55:59;;;;;;;1.10;0.80;;;31.30;1.00;;;;;;5117784;27;20427;-49
2023/08/19 09:58:26;;;;;;;1.50;0.80;;;31.40;1.00;;;;;;5124481;27;20430;-54
2023/08/19 10:00:53;;;;;;;1.30;0.80;;;31.50;1.00;;;;;;5128028;27;20434;-54
2023/08/19 10:03:23;;;;;;;0.98;0.73;;;31.60;1.00;;;;;;5129403;27;20440;-54
2023/08/19 10:05:53;;;;;;;1.02;0.70;;;31.80;1.00;;;;;;5124061;27;20505;-56
2023/08/19 10:08:23;;;;;;;1.77;0.80;;;31.90;1.00;;;;;;5146853;27;20459;-53
2023/08/19 10:10:51;;;;;;;1.58;0.77;;;32.00;1.00;;;;;;5125263;27;20430;-55
2023/08/19 10:13:18;;;;;;;1.25;0.77;;;32.20;1.00;;;;;;5128849;27;20854;-55
2023/08/19 10:15:45;;;;;;;1.88;0.80;;;32.30;1.00;;;;;;5132006;27;20922;-54
2023/08/19 10:18:16;;;;;;;4.30;0.80;;;32.60;1.00;;;;;;5126735;27;20710;-52
2023/08/19 10:20:47;;;;;;;1.30;0.70;;;32.80;1.00;;;;;;5118704;27;20820;-54
2023/08/19 10:23:16;;;;;;;2.33;0.80;;;33.00;1.00;;;;;;5125716;27;20434;-58
2023/08/19 10:25:43;;;;;;;1.40;0.73;;;33.30;1.00;;;;;;5123279;27;20410;-57
2023/08/19 10:28:14;;;;;;;1.30;0.80;;;33.50;1.00;;;;;;5131126;27;20438;-57
2023/08/19 10:30:41;;;;;;;1.10;0.73;;;33.80;1.00;;;;;;5131279;27;20471;-55
2023/08/19 10:33:29;;;;;;;1.70;0.80;;;34.00;1.00;;;;;;5130682;27;20472;-57
2023/08/19 10:36:03;;;;;;;2.50;0.70;;;34.30;1.00;;;;;;5129772;27;20529;-57
2023/08/19 10:38:45;;;;;;;1.50;0.73;;;34.50;1.00;;;;;;5130236;27;20429;-57
2023/08/19 10:41:26;;;;;;;1.40;0.70;;;34.70;1.00;;;;;;5128938;27;20428;-57
2023/08/19 10:43:58;;;;;;;2.70;0.90;;;34.80;1.00;;;;;;5120342;27;20853;-57
2023/08/19 10:46:27;;;;;;;2.67;0.80;;;35.00;1.00;;;;;;5128489;27;20434;-56
2023/08/19 10:48:54;;;;;;;2.00;0.90;;;35.10;1.00;;;;;;5128421;27;20438;-57
2023/08/19 10:51:42;;;;;;;1.08;0.75;;;35.10;1.00;;;;;;5119467;27;20489;-56
2023/08/19 10:54:09;;;;;;;1.88;0.80;;;35.10;1.00;;;;;;5123303;27;20467;-58
2023/08/19 10:56:37;;;;;;;1.48;0.80;;;35.40;1.00;;;;;;5118888;27;20501;-57
2023/08/19 10:59:04;;;;;;;1.13;0.80;;;35.20;1.00;;;;;;5114815;28;21450;-57
2023/08/19 11:01:33;;;;;;;1.20;0.80;;;34.90;1.00;;;;;;5128059;27;20438;-57
2023/08/19 11:04:00;;;;;;;4.50;0.90;;;34.90;1.00;;;;;;5114731;28;20428;-57
2023/08/19 11:06:30;;;;;;;2.05;0.90;;;35.20;1.00;;;;;;5122841;27;20464;-56
2023/08/19 11:09:00;;;;;;;3.22;0.80;;;35.10;1.00;;;;;;5131012;27;20879;-55
2023/08/19 11:11:27;;;;;;;1.40;0.80;;;35.40;1.00;;;;;;5129466;27;20473;-56
2023/08/19 11:13:55;;;;;;;1.20;0.80;;;35.40;1.00;;;;;;5136726;27;20414;-57
2023/08/19 11:16:26;;;;;;;1.75;0.80;;;35.70;1.00;;;;;;5137739;27;20752;-56
2023/08/19 11:18:54;;;;;;;1.30;0.70;;;35.90;1.00;;;;;;5138400;27;20847;-56
2023/08/19 11:21:21;;;;;;;2.10;0.80;;;36.00;1.00;;;;;;5137360;27;20860;-56
2023/08/19 11:23:49;;;;;;;1.30;0.70;;;36.20;1.00;;;;;;5137457;27;20422;-55
2023/08/19 11:26:17;;;;;;;1.00;0.70;;;36.40;1.00;;;;;;5135106;27;20435;-57
2023/08/19 11:28:44;;;;;;;1.50;0.80;;;36.40;1.00;;;;;;5137492;27;20577;-57
2023/08/19 11:31:11;;;;;;;0.80;0.70;;;36.40;1.00;;;;;;5131036;27;20440;-56
2023/08/19 11:33:38;;;;;;;0.90;0.70;;;36.60;1.00;;;;;;5129581;27;20493;-55
2023/08/19 11:36:06;;;;;;;1.30;0.80;;;36.90;1.00;;;;;;5116343;28;20481;-54
2023/08/19 11:38:33;;;;;;;1.40;0.80;;;36.80;1.00;;;;;;5118823;27;20423;-55
2023/08/19 11:41:02;;;;;;;1.35;0.80;;;36.90;1.00;;;;;;5137144;27;20414;-56
2023/08/19 11:43:31;;;;;;;1.10;1.00;;;36.80;1.00;;;;;;5132402;27;20836;-55
2023/08/19 11:45:58;;;;;;;1.13;0.70;;;36.70;1.00;;;;;;5134444;27;20521;-56
2023/08/19 11:48:26;;;;;;;1.50;0.80;;;36.60;1.00;;;;;;5123250;27;20869;-56
2023/08/19 11:50:53;;;;;;;2.00;0.70;;;36.70;1.00;;;;;;5137540;27;20435;-56
2023/08/19 11:53:25;;;;;;;2.13;0.80;;;37.00;1.00;;;;;;5136756;27;20422;-56
2023/08/19 11:55:57;;;;;;;1.80;0.70;;;36.70;1.00;;;;;;5137556;27;20476;-56
2023/08/19 11:58:27;;;;;;;1.90;0.90;;;36.80;1.00;;;;;;5135394;27;20556;-56
2023/08/19 12:00:55;;;;;;;1.80;0.70;;;36.50;1.00;;;;;;5128746;27;20864;-55
2023/08/19 12:03:24;;;;;;;1.20;1.00;;;36.30;1.00;;;;;;5134207;27;21019;-57
2023/08/19 12:05:52;;;;;;;1.65;0.75;;;36.30;1.00;;;;;;5136757;27;20423;-53
2023/08/19 12:08:32;;;;;;;1.00;0.90;;;36.30;1.00;;;;;;5137359;27;21013;-56
2023/08/19 12:11:00;;;;;;;1.10;0.80;;;36.40;1.00;;;;;;5136135;27;20411;-55
2023/08/19 12:13:29;;;;;;;1.70;0.80;;;36.50;1.00;;;;;;5136158;27;20486;-57
2023/08/19 12:15:58;;;;;;;1.30;0.80;;;36.90;1.00;;;;;;5137654;27;20426;-54
2023/08/19 12:18:25;;;;;;;2.30;0.90;;;37.00;1.00;;;;;;5136972;27;20423;-56
2023/08/19 12:20:53;;;;;;;1.70;0.90;;;37.20;1.00;;;;;;5133264;27;20422;-55
2023/08/19 12:23:20;;;;;;;1.10;0.80;;;37.20;1.00;;;;;;5126936;27;20438;-56
2023/08/19 12:25:51;;;;;;;3.10;0.80;;;37.30;1.00;;;;;;5133333;27;20492;-56
2023/08/19 12:28:18;;;;;;;1.00;0.77;;;37.30;1.00;;;;;;5126534;27;20430;-56
2023/08/19 12:30:47;;;;;;;1.00;0.80;;;37.30;1.00;;;;;;5131516;27;20944;-57
2023/08/19 12:33:14;;;;;;;1.20;0.70;;;36.90;1.00;;;;;;5123595;27;20430;-57
2023/08/19 12:35:44;;;;;;;1.15;0.70;;;36.70;1.00;;;;;;5119946;27;20523;-56
2023/08/19 12:38:13;;;;;;;1.80;0.70;;;36.70;1.00;;;;;;5122792;27;20855;-54
2023/08/19 12:40:40;;;;;;;1.30;0.80;;;37.20;1.00;;;;;;5132334;27;20410;-53
2023/08/19 12:43:08;;;;;;;1.30;0.80;;;37.40;1.00;;;;;;5131639;27;20495;-53
2023/08/19 12:45:35;;;;;;;1.10;0.80;;;37.70;1.00;;;;;;5132346;27;20425;-56
2023/08/19 12:48:03;;;;;;;2.00;1.40;;;37.70;1.00;;;;;;5133525;27;20422;-55
2023/08/19 12:50:30;;;;;;;1.90;1.00;;;37.70;1.00;;;;;;5133104;27;20497;-55
2023/08/19 12:52:58;;;;;;;2.17;0.90;;;37.40;1.00;;;;;;5132139;27;20410;-55
2023/08/19 12:55:26;;;;;;;1.20;1.00;;;37.40;1.00;;;;;;5126372;27;20431;-56
2023/08/19 12:57:55;;;;;;;1.70;1.10;;;37.50;1.00;;;;;;5131674;27;20469;-54